createdAt,value
2019-02-07T00:01:09.460Z,48.97
2019-02-07T00:03:38.877Z,36.67
2019-02-07T00:06:08.189Z,43.63
2019-02-07T00:08:37.605Z,49.80
2019-02-07T00:11:06.985Z,48.33
2019-02-07T00:13:36.340Z,48.77
2019-02-07T00:16:05.657Z,50.57
2019-02-07T00:18:35.072Z,49.40
2019-02-07T00:21:04.371Z,49.90
2019-02-07T00:23:34.693Z,52.80
2019-02-07T00:26:04.005Z,48.50
2019-02-07T00:28:33.350Z,52.63
2019-02-07T00:31:02.658Z,48.47
2019-02-07T00:33:31.996Z,51.90
2019-02-07T00:36:01.301Z,49.77
2019-02-07T00:38:31.614Z,50.60
2019-02-07T00:41:00.917Z,49.80
2019-02-07T00:43:30.343Z,49.47
2019-02-07T00:45:59.655Z,50.70
2019-02-07T00:48:29.314Z,53.40
2019-02-07T00:50:58.613Z,51.57
2019-02-07T00:53:28.048Z,51.93
2019-02-07T00:55:57.429Z,52.03
2019-02-07T00:58:26.773Z,47.60
2019-02-07T01:00:56.085Z,53.70
2019-02-07T01:03:25.740Z,51.33
2019-02-07T01:05:55.044Z,48.20
2019-02-07T01:08:24.402Z,53.33
2019-02-07T01:10:53.720Z,50.97
2019-02-07T01:13:23.090Z,45.63
2019-02-07T01:15:52.469Z,48.40
2019-02-07T01:18:22.016Z,54.37
2019-02-07T01:20:51.364Z,53.63
2019-02-07T01:23:20.690Z,52.80
2019-02-07T01:25:50.025Z,55.43
2019-02-07T01:28:19.333Z,53.07
2019-02-07T01:30:48.684Z,51.20
2019-02-07T01:33:18.302Z,53.87
2019-02-07T01:35:47.724Z,55.43
2019-02-07T01:38:17.041Z,55.40
2019-02-07T01:40:46.404Z,57.13
2019-02-07T01:43:15.720Z,50.93
2019-02-07T01:45:45.081Z,53.40
2019-02-07T01:48:14.776Z,57.87
2019-02-07T01:50:44.128Z,55.00
2019-02-07T01:53:13.441Z,54.07
2019-02-07T01:55:42.798Z,53.97
2019-02-07T01:58:12.113Z,52.43
2019-02-07T02:00:41.540Z,52.37
2019-02-07T02:03:11.253Z,54.50
2019-02-07T02:05:40.678Z,53.67
2019-02-07T02:08:09.984Z,51.20
2019-02-07T02:10:39.336Z,52.90
2019-02-07T02:13:08.648Z,54.00
2019-02-07T02:15:38.005Z,54.67
2019-02-07T02:18:07.616Z,52.70
2019-02-07T02:20:36.968Z,53.13
2019-02-07T02:23:06.274Z,52.67
2019-02-07T02:25:35.624Z,53.37
2019-02-07T02:28:04.936Z,50.47
2019-02-07T02:30:35.737Z,54.50
2019-02-07T02:33:05.343Z,53.80
2019-02-07T02:35:34.692Z,51.60
2019-02-07T02:38:04.008Z,54.10
2019-02-07T02:40:33.365Z,53.10
2019-02-07T02:43:02.674Z,54.63
2019-02-07T02:45:37.547Z,54.97
2019-02-07T02:48:03.061Z,51.53
2019-02-07T02:50:32.405Z,50.40
2019-02-07T02:53:01.721Z,55.90
2019-02-07T02:55:35.411Z,54.43
2019-02-07T02:58:05.756Z,51.70
2019-02-07T03:00:36.745Z,52.87
2019-02-07T03:03:13.551Z,51.27
2019-02-07T03:05:50.061Z,50.83
2019-02-07T03:08:21.024Z,52.87
2019-02-07T03:11:04.150Z,50.83
2019-02-07T03:13:35.174Z,46.77
2019-02-07T03:16:06.145Z,53.83
2019-02-07T03:18:54.069Z,52.60
2019-02-07T03:21:37.062Z,54.63
2019-02-07T03:24:25.907Z,51.80
2019-02-07T03:27:08.961Z,52.47
2019-02-07T03:29:48.989Z,54.03
2019-02-07T03:32:25.794Z,51.17
2019-02-07T03:34:56.906Z,53.53
2019-02-07T03:37:30.871Z,52.60
2019-02-07T03:40:04.778Z,53.60
2019-02-07T03:42:41.479Z,57.00
2019-02-07T03:45:18.378Z,56.47
2019-02-07T03:47:52.033Z,53.23
2019-02-07T03:50:31.954Z,52.80
2019-02-07T03:53:02.941Z,56.17
2019-02-07T03:55:36.585Z,54.80
2019-02-07T03:58:13.536Z,55.53
2019-02-07T04:00:47.464Z,54.23
2019-02-07T04:03:21.184Z,54.10
2019-02-07T04:06:08.168Z,53.00
2019-02-07T04:08:51.210Z,54.40
2019-02-07T04:11:28.025Z,55.47
2019-02-07T04:14:05.106Z,55.70
2019-02-07T04:16:52.385Z,55.57
2019-02-07T04:19:23.581Z,55.37
2019-02-07T04:21:54.692Z,53.00
2019-02-07T04:24:27.148Z,54.90
2019-02-07T04:27:01.057Z,52.13
2019-02-07T04:29:32.210Z,55.57
2019-02-07T04:32:03.153Z,56.50
2019-02-07T04:34:42.920Z,55.93
2019-02-07T04:37:19.576Z,52.50
2019-02-07T04:39:53.270Z,52.50
2019-02-07T04:42:24.223Z,55.73
2019-02-07T04:44:57.973Z,51.90
2019-02-07T04:47:37.769Z,51.90
2019-02-07T04:50:26.229Z,50.00
2019-02-07T04:53:02.659Z,50.37
2019-02-07T04:55:51.482Z,53.43
2019-02-07T04:58:34.459Z,52.67
2019-02-07T05:01:14.599Z,52.97
2019-02-07T05:04:01.911Z,56.10
2019-02-07T05:06:35.867Z,53.93
2019-02-07T05:09:08.465Z,53.10
2019-02-07T05:11:39.443Z,53.37
2019-02-07T05:14:26.448Z,54.10
2019-02-07T05:17:00.172Z,51.67
2019-02-07T05:19:34.432Z,56.10
2019-02-07T05:22:08.134Z,53.67
2019-02-07T05:24:55.328Z,56.83
2019-02-07T05:27:26.316Z,56.53
2019-02-07T05:30:06.089Z,54.80
2019-02-07T05:32:39.917Z,55.63
2019-02-07T05:35:12.917Z,57.37
2019-02-07T05:37:49.567Z,54.33
2019-02-07T05:40:24.906Z,55.50
2019-02-07T05:43:01.597Z,52.27
2019-02-07T05:45:35.502Z,57.33
2019-02-07T05:48:12.457Z,58.87
2019-02-07T05:50:58.538Z,54.87
2019-02-07T05:53:29.536Z,55.77
2019-02-07T05:56:09.553Z,58.60
2019-02-07T05:58:59.227Z,63.43
2019-02-07T06:01:45.973Z,55.27
2019-02-07T06:04:16.973Z,56.93
2019-02-07T06:06:59.893Z,51.93
2019-02-07T06:09:49.040Z,57.23
2019-02-07T06:12:25.495Z,51.90
2019-02-07T06:15:12.701Z,55.40
2019-02-07T06:17:46.603Z,57.57
2019-02-07T06:20:26.429Z,57.03
2019-02-07T06:22:57.388Z,57.13
2019-02-07T06:25:44.713Z,57.03
2019-02-07T06:28:21.469Z,58.33
2019-02-07T06:30:52.464Z,56.13
2019-02-07T06:33:38.270Z,58.80
2019-02-07T06:36:17.868Z,55.87
2019-02-07T06:38:51.842Z,57.40
2019-02-07T06:41:28.510Z,60.77
2019-02-07T06:44:02.261Z,57.70
2019-02-07T06:46:42.355Z,59.00
2019-02-07T06:49:19.076Z,58.90
2019-02-07T06:52:07.915Z,57.00
2019-02-07T06:54:44.927Z,56.83
2019-02-07T06:57:18.693Z,57.80
2019-02-07T06:59:49.651Z,57.67
2019-02-07T07:02:36.936Z,56.93
2019-02-07T07:05:12.543Z,55.67
2019-02-07T07:07:55.487Z,57.07
2019-02-07T07:10:26.437Z,56.20
2019-02-07T07:12:57.797Z,55.00
2019-02-07T07:15:34.936Z,55.40
2019-02-07T07:18:08.525Z,56.57
2019-02-07T07:20:48.580Z,55.37
2019-02-07T07:23:34.371Z,55.83
2019-02-07T07:26:14.481Z,55.30
2019-02-07T07:28:48.364Z,55.13
2019-02-07T07:31:35.317Z,53.53
2019-02-07T07:34:15.059Z,57.53
2019-02-07T07:36:54.868Z,56.07
2019-02-07T07:39:32.061Z,59.17
2019-02-07T07:42:19.160Z,57.57
2019-02-07T07:44:59.597Z,58.57
2019-02-07T07:47:36.700Z,53.40
2019-02-07T07:50:16.662Z,57.80
2019-02-07T07:52:50.347Z,57.97
2019-02-07T07:55:24.312Z,51.93
2019-02-07T07:58:07.336Z,58.20
2019-02-07T08:00:44.358Z,58.47
2019-02-07T08:03:15.407Z,56.20
2019-02-07T08:05:53.450Z,55.73
2019-02-07T08:08:40.818Z,54.53
2019-02-07T08:11:28.182Z,57.33
2019-02-07T08:14:02.305Z,55.37
2019-02-07T08:16:49.320Z,53.20
2019-02-07T08:19:36.655Z,55.87
2019-02-07T08:22:10.860Z,53.63
2019-02-07T08:24:44.514Z,59.67
2019-02-07T08:27:33.662Z,59.27
2019-02-07T08:30:10.365Z,58.27
2019-02-07T08:32:50.146Z,60.63
2019-02-07T08:35:23.796Z,56.63
2019-02-07T08:38:03.575Z,56.40
2019-02-07T08:40:52.592Z,52.90
2019-02-07T08:43:23.601Z,58.00
2019-02-07T08:46:00.561Z,55.57
2019-02-07T08:48:40.533Z,55.37
2019-02-07T08:51:14.180Z,55.93
2019-02-07T08:53:50.889Z,54.93
2019-02-07T08:56:28.164Z,55.07
2019-02-07T08:59:15.461Z,51.30
2019-02-07T09:01:49.385Z,55.37
2019-02-07T09:04:20.374Z,55.27
2019-02-07T09:06:51.324Z,58.93
2019-02-07T09:09:25.185Z,55.50
2019-02-07T09:11:56.181Z,55.67
2019-02-07T09:14:33.229Z,55.53
2019-02-07T09:17:20.854Z,54.53
2019-02-07T09:20:03.946Z,54.23
2019-02-07T09:22:51.225Z,55.60
2019-02-07T09:25:40.232Z,56.63
2019-02-07T09:28:29.115Z,55.63
2019-02-07T09:31:16.187Z,58.27
2019-02-07T09:33:52.721Z,52.50
2019-02-07T09:36:39.817Z,54.53
2019-02-07T09:39:13.476Z,57.40
2019-02-07T09:42:00.629Z,58.17
2019-02-07T09:44:41.555Z,57.90
2019-02-07T09:47:27.616Z,56.80
2019-02-07T09:50:01.277Z,54.10
2019-02-07T09:52:32.268Z,55.43
2019-02-07T09:55:06.009Z,55.07
2019-02-07T09:57:39.969Z,58.63
2019-02-07T10:00:19.983Z,59.40
2019-02-07T10:02:50.985Z,59.13
2019-02-07T10:05:30.649Z,59.20
2019-02-07T10:08:10.457Z,62.10
2019-02-07T10:10:57.321Z,59.83
2019-02-07T10:13:44.561Z,62.17
2019-02-07T10:16:24.263Z,59.07
2019-02-07T10:19:01.317Z,65.57
2019-02-07T10:21:32.274Z,63.83
2019-02-07T10:24:03.269Z,65.67
2019-02-07T10:26:40.298Z,64.43
2019-02-07T10:29:26.548Z,66.93
2019-02-07T10:32:00.299Z,64.50
2019-02-07T10:34:48.709Z,70.70
2019-02-07T10:37:19.704Z,66.70
2019-02-07T10:40:05.572Z,68.73
2019-02-07T10:42:36.528Z,67.27
2019-02-07T10:45:11.012Z,65.03
2019-02-07T10:47:57.396Z,69.73
2019-02-07T10:50:37.218Z,66.67
2019-02-07T10:53:26.276Z,69.37
2019-02-07T10:55:57.453Z,67.63
2019-02-07T10:58:28.412Z,63.23
2019-02-07T11:01:05.184Z,68.20
2019-02-07T11:03:41.988Z,63.00
2019-02-07T11:06:30.577Z,66.57
2019-02-07T11:09:16.612Z,68.20
2019-02-07T11:12:02.573Z,67.47
2019-02-07T11:14:52.615Z,68.53
2019-02-07T11:17:39.968Z,66.57
2019-02-07T11:20:32.991Z,67.90
2019-02-07T11:23:13.744Z,64.73
2019-02-07T11:26:00.817Z,66.03
2019-02-07T11:28:31.802Z,66.93
2019-02-07T11:31:02.859Z,58.23
2019-02-07T11:33:46.002Z,60.03
2019-02-07T11:36:19.937Z,63.17
2019-02-07T11:38:56.653Z,63.80
2019-02-07T11:41:39.489Z,59.53
2019-02-07T11:44:13.140Z,59.57
2019-02-07T11:47:07.291Z,57.67
2019-02-07T11:49:43.142Z,60.03
2019-02-07T11:52:19.926Z,61.60
2019-02-07T11:54:53.632Z,62.73
2019-02-07T11:57:36.858Z,65.53
2019-02-07T12:00:16.697Z,64.17
2019-02-07T12:02:47.653Z,63.50
2019-02-07T12:05:35.043Z,64.63
2019-02-07T12:08:06.060Z,64.60
2019-02-07T12:10:43.025Z,59.67
2019-02-07T12:13:16.952Z,59.17
2019-02-07T12:15:47.946Z,65.47
2019-02-07T12:18:25.381Z,63.63
2019-02-07T12:21:08.197Z,65.87
2019-02-07T12:23:53.980Z,64.00
2019-02-07T12:26:24.975Z,65.73
2019-02-07T12:28:56.898Z,60.83
2019-02-07T12:31:27.886Z,65.40
2019-02-07T12:34:10.639Z,69.73
2019-02-07T12:36:57.778Z,70.03
2019-02-07T12:39:46.661Z,66.23
2019-02-07T12:42:26.717Z,64.00
2019-02-07T12:45:13.733Z,65.33
2019-02-07T12:48:00.757Z,63.73
2019-02-07T12:50:46.573Z,67.63
2019-02-07T12:53:23.241Z,64.10
2019-02-07T12:56:06.200Z,65.67
2019-02-07T12:58:37.192Z,65.23
2019-02-07T13:01:11.104Z,62.30
2019-02-07T13:03:56.714Z,62.00
2019-02-07T13:06:30.566Z,65.17
2019-02-07T13:09:01.548Z,61.53
2019-02-07T13:11:35.525Z,60.93
2019-02-07T13:14:06.908Z,60.67
2019-02-07T13:16:49.978Z,65.73
2019-02-07T13:19:40.548Z,55.97
2019-02-07T13:22:25.675Z,62.40
2019-02-07T13:25:05.851Z,60.10
2019-02-07T13:27:39.797Z,62.17
2019-02-07T13:30:34.811Z,62.57
2019-02-07T13:33:09.703Z,62.93
2019-02-07T13:35:40.733Z,61.90
2019-02-07T13:38:20.810Z,62.90
2019-02-07T13:40:51.936Z,61.17
2019-02-07T13:43:22.922Z,64.23
2019-02-07T13:46:02.632Z,61.77
2019-02-07T13:48:45.673Z,60.73
2019-02-07T13:51:19.442Z,62.50
2019-02-07T13:53:59.369Z,60.67
2019-02-07T13:56:47.230Z,62.80
2019-02-07T13:59:29.313Z,58.60
2019-02-07T14:02:16.557Z,58.03
2019-02-07T14:04:53.587Z,55.13
2019-02-07T14:07:30.141Z,54.70
2019-02-07T14:10:09.990Z,58.83
2019-02-07T14:12:46.692Z,60.53
2019-02-07T14:15:17.880Z,58.20
2019-02-07T14:18:06.705Z,55.33
2019-02-07T14:20:53.978Z,54.20
2019-02-07T14:23:31.750Z,56.40
2019-02-07T14:26:03.985Z,54.53
2019-02-07T14:28:37.434Z,56.23
2019-02-07T14:31:11.185Z,56.57
2019-02-07T14:33:42.139Z,55.83
2019-02-07T14:36:13.218Z,55.13
2019-02-07T14:38:59.559Z,58.10
2019-02-07T14:41:39.967Z,52.53
2019-02-07T14:44:22.707Z,58.17
2019-02-07T14:46:52.382Z,58.40
2019-02-07T14:49:21.934Z,54.27
2019-02-07T14:51:51.278Z,59.00
2019-02-07T14:54:20.595Z,53.70
2019-02-07T14:56:50.914Z,57.07
2019-02-07T14:59:20.208Z,56.17
2019-02-07T15:01:49.646Z,50.43
2019-02-07T15:04:19.010Z,58.00
2019-02-07T15:06:48.947Z,57.50
2019-02-07T15:09:18.254Z,55.60
2019-02-07T15:11:47.596Z,57.20
2019-02-07T15:14:17.879Z,57.53
2019-02-07T15:16:47.231Z,57.03
2019-02-07T15:19:16.530Z,55.03
2019-02-07T15:21:45.877Z,54.40
2019-02-07T15:24:15.185Z,56.77
2019-02-07T15:26:44.823Z,51.17
2019-02-07T15:29:15.998Z,49.73
2019-02-07T15:31:45.096Z,51.97
2019-02-07T15:34:14.404Z,52.17
2019-02-07T15:36:43.992Z,48.23
2019-02-07T15:39:15.025Z,53.10
2019-02-07T15:41:44.393Z,52.97
2019-02-07T15:44:13.729Z,53.30
2019-02-07T15:46:43.075Z,51.13
2019-02-07T15:49:12.416Z,52.00
2019-02-07T15:51:41.716Z,58.57
2019-02-07T15:54:11.065Z,57.37
2019-02-07T15:56:40.380Z,53.20
2019-02-07T15:59:14.543Z,53.37
2019-02-07T16:01:45.504Z,51.57
2019-02-07T16:04:17.454Z,52.27
2019-02-07T16:06:46.765Z,52.97
2019-02-07T16:09:16.193Z,52.70
2019-02-07T16:11:45.498Z,53.30
2019-02-07T16:14:14.855Z,49.23
2019-02-07T16:16:44.157Z,52.50
2019-02-07T16:19:13.505Z,51.47
2019-02-07T16:21:42.805Z,55.30
2019-02-07T16:24:12.145Z,54.03
2019-02-07T16:26:41.448Z,54.70
2019-02-07T16:29:10.800Z,52.63
2019-02-07T16:31:40.098Z,50.83
2019-02-07T16:34:09.456Z,51.80
2019-02-07T16:36:38.772Z,53.20
2019-02-07T16:39:08.116Z,54.23
2019-02-07T16:41:37.504Z,56.43
2019-02-07T16:44:06.869Z,54.63
2019-02-07T16:46:36.176Z,50.60
2019-02-07T16:49:05.544Z,53.27
2019-02-07T16:51:34.856Z,52.60
2019-02-07T16:54:04.208Z,52.90
2019-02-07T16:56:33.517Z,51.80
2019-02-07T16:59:02.859Z,53.67
2019-02-07T17:01:32.177Z,52.97
2019-02-07T17:04:01.537Z,54.23
2019-02-07T17:06:31.001Z,55.13
2019-02-07T17:09:00.353Z,53.87
2019-02-07T17:11:31.232Z,52.97
2019-02-07T17:14:00.574Z,51.83
2019-02-07T17:16:29.881Z,50.50
2019-02-07T17:18:59.228Z,50.37
2019-02-07T17:21:28.532Z,51.27
2019-02-07T17:23:57.885Z,49.63
2019-02-07T17:26:27.205Z,48.57
2019-02-07T17:28:56.548Z,46.93
2019-02-07T17:31:25.853Z,44.83
2019-02-07T17:33:55.226Z,47.00
2019-02-07T17:36:24.526Z,40.90
2019-02-07T17:38:53.833Z,39.60
2019-02-07T17:41:23.205Z,41.10
2019-02-07T17:43:52.512Z,38.93
2019-02-07T17:46:21.856Z,41.77
2019-02-07T17:48:51.168Z,43.13
2019-02-07T17:51:23.404Z,37.97
2019-02-07T17:53:51.504Z,44.13
2019-02-07T17:56:20.928Z,62.40
2019-02-07T17:58:50.255Z,53.47
2019-02-07T18:01:19.647Z,37.23
2019-02-07T18:03:48.924Z,34.60
2019-02-07T18:06:18.282Z,37.47
2019-02-07T18:08:47.578Z,36.50
2019-02-07T18:11:17.887Z,36.07
2019-02-07T18:13:47.197Z,35.13
2019-02-07T18:16:16.546Z,43.20
2019-02-07T18:18:45.853Z,34.77
2019-02-07T18:21:16.165Z,36.67
2019-02-07T18:23:45.472Z,32.57
2019-02-07T18:26:15.281Z,29.00
2019-02-07T18:28:44.581Z,32.23
2019-02-07T18:31:13.920Z,31.90
2019-02-07T18:33:43.220Z,34.40
2019-02-07T18:36:12.559Z,38.07
2019-02-07T18:38:41.857Z,31.73
2019-02-07T18:41:11.210Z,38.17
2019-02-07T18:43:40.519Z,30.80
2019-02-07T18:46:09.868Z,28.50
2019-02-07T18:48:39.167Z,31.90
2019-02-07T18:51:08.913Z,28.00
2019-02-07T18:53:38.213Z,27.10
2019-02-07T18:56:07.574Z,29.93
2019-02-07T18:58:36.985Z,28.20
2019-02-07T19:01:06.333Z,28.60
2019-02-07T19:03:35.644Z,29.57
2019-02-07T19:06:05.395Z,32.48
2019-02-07T19:08:34.706Z,28.47
2019-02-07T19:11:04.049Z,27.37
2019-02-07T19:13:33.367Z,31.57
2019-02-07T19:16:03.940Z,27.50
2019-02-07T19:18:33.250Z,29.37
2019-02-07T19:21:03.094Z,28.33
2019-02-07T19:23:32.471Z,30.73
2019-02-07T19:26:02.225Z,29.67
2019-02-07T19:28:32.961Z,33.93
2019-02-07T19:31:02.377Z,31.67
2019-02-07T19:33:32.049Z,32.87
2019-02-07T19:36:02.214Z,34.40
2019-02-07T19:38:33.007Z,31.20
2019-02-07T19:41:02.653Z,30.13
2019-02-07T19:43:33.329Z,30.90
2019-02-07T19:46:05.591Z,32.47
2019-02-07T19:48:34.962Z,29.67
2019-02-07T19:51:06.179Z,31.87
2019-02-07T19:53:35.486Z,30.37
2019-02-07T19:56:06.581Z,34.20
2019-02-07T19:58:35.957Z,29.43
2019-02-07T20:01:06.372Z,33.87
2019-02-07T20:03:35.956Z,32.07
2019-02-07T20:06:07.988Z,46.07
2019-02-07T20:08:37.356Z,35.17
2019-02-07T20:11:06.797Z,39.23
2019-02-07T20:13:36.171Z,37.57
2019-02-07T20:16:05.593Z,35.73
2019-02-07T20:18:36.649Z,38.53
2019-02-07T20:21:06.023Z,40.80
2019-02-07T20:23:35.374Z,45.73
2019-02-07T20:26:04.750Z,47.23
2019-02-07T20:28:34.117Z,49.67
2019-02-07T20:31:03.486Z,37.40
2019-02-07T20:33:32.844Z,46.20
2019-02-07T20:36:02.138Z,38.37
2019-02-07T20:38:31.549Z,35.23
2019-02-07T20:41:01.022Z,43.57
2019-02-07T20:43:30.764Z,35.90
2019-02-07T20:46:00.073Z,41.20
2019-02-07T20:48:29.508Z,37.77
2019-02-07T20:50:59.617Z,37.80
2019-02-07T20:53:29.256Z,35.90
2019-02-07T20:55:59.201Z,38.37
2019-02-07T20:58:30.115Z,36.07
2019-02-07T21:00:59.589Z,37.00
2019-02-07T21:03:29.000Z,37.30
2019-02-07T21:05:58.364Z,36.20
2019-02-07T21:08:28.225Z,34.20
2019-02-07T21:10:57.525Z,44.00
2019-02-07T21:13:27.177Z,36.83
2019-02-07T21:15:56.483Z,43.17
2019-02-07T21:18:25.916Z,43.93
2019-02-07T21:20:55.202Z,36.73
2019-02-07T21:23:24.692Z,39.23
2019-02-07T21:25:54.500Z,40.80
2019-02-07T21:28:23.913Z,37.73
2019-02-07T21:30:53.289Z,34.00
2019-02-07T21:33:22.633Z,38.63
2019-02-07T21:35:52.001Z,37.07
2019-02-07T21:38:21.416Z,37.33
2019-02-07T21:40:51.226Z,36.10
2019-02-07T21:43:20.649Z,39.03
2019-02-07T21:45:50.020Z,36.73
2019-02-07T21:48:19.437Z,40.20
2019-02-07T21:50:48.828Z,38.07
2019-02-07T21:53:18.246Z,39.37
2019-02-07T21:55:47.620Z,38.17
2019-02-07T21:58:17.576Z,39.37
2019-02-07T22:00:47.063Z,40.63
2019-02-07T22:03:16.465Z,40.20
2019-02-07T22:05:46.248Z,43.30
2019-02-07T22:08:15.704Z,43.10
2019-02-07T22:10:45.016Z,45.67
2019-02-07T22:13:14.978Z,45.03
2019-02-07T22:15:44.371Z,46.77
2019-02-07T22:18:16.905Z,44.80
2019-02-07T22:20:46.264Z,46.97
2019-02-07T22:23:15.571Z,48.57
2019-02-07T22:25:44.916Z,49.50
2019-02-07T22:28:14.238Z,51.77
2019-02-07T22:30:43.580Z,49.73
2019-02-07T22:33:12.894Z,47.57
2019-02-07T22:35:42.240Z,46.77
2019-02-07T22:38:11.552Z,48.97
2019-02-07T22:40:40.897Z,49.73
2019-02-07T22:43:10.512Z,52.73
2019-02-07T22:45:39.929Z,53.57
2019-02-07T22:48:09.240Z,49.87
2019-02-07T22:50:38.658Z,51.13
2019-02-07T22:53:07.964Z,50.13
2019-02-07T22:55:37.333Z,52.20
2019-02-07T22:58:07.477Z,53.07
2019-02-07T23:00:44.356Z,51.80
2019-02-07T23:03:15.897Z,48.97
2019-02-07T23:05:45.966Z,53.40
2019-02-07T23:08:15.320Z,53.77
2019-02-07T23:10:44.968Z,53.43
2019-02-07T23:13:14.275Z,53.33
2019-02-07T23:15:43.639Z,50.97
2019-02-07T23:18:12.934Z,54.07
2019-02-07T23:20:42.285Z,52.47
2019-02-07T23:23:11.961Z,49.93
2019-02-07T23:25:41.700Z,52.43
2019-02-07T23:28:11.016Z,51.93
2019-02-07T23:30:40.349Z,53.50
2019-02-07T23:33:09.649Z,52.83
2019-02-07T23:35:38.996Z,49.97
2019-02-07T23:38:08.311Z,53.07
2019-02-07T23:40:38.000Z,46.80
2019-02-07T23:43:08.052Z,55.00
2019-02-07T23:45:37.405Z,52.43
2019-02-07T23:48:06.706Z,51.27
2019-02-07T23:50:37.017Z,48.03
2019-02-07T23:53:14.410Z,49.50
2019-02-07T23:55:37.355Z,52.90
2019-02-07T23:58:06.657Z,51.43
